sensor_id;sensor_type;location;lat;lon;timestamp;pressure;altitude;pressure_sealevel;temperature;humidity
6464;BME280;3265;42.694;23.282;2023-07-13T00:02:19;71380.19;;;-143.21;59.79
6464;BME280;3265;42.694;23.282;2023-07-13T00:04:46;71378.19;;;-143.21;58.89
6464;BME280;3265;42.694;23.282;2023-07-13T00:07:13;71376.22;;;-143.21;58.89
6464;BME280;3265;42.694;23.282;2023-07-13T00:09:40;71372.25;;;-143.21;59.44
6464;BME280;3265;42.694;23.282;2023-07-13T00:12:22;71368.28;;;-143.21;59.42
6464;BME280;3265;42.694;23.282;2023-07-13T00:14:50;71376.22;;;-143.21;59.96
6464;BME280;3265;42.694;23.282;2023-07-13T00:17:17;71374.22;;;-143.21;60.18
6464;BME280;3265;42.694;23.282;2023-07-13T00:19:45;71376.22;;;-143.21;60.50
6464;BME280;3265;42.694;23.282;2023-07-13T00:22:12;71372.25;;;-143.21;60.72
6464;BME280;3265;42.694;23.282;2023-07-13T00:24:39;71374.22;;;-143.21;60.68
6464;BME280;3265;42.694;23.282;2023-07-13T00:27:07;71366.31;;;-143.21;60.70
6464;BME280;3265;42.694;23.282;2023-07-13T00:29:34;71368.28;;;-143.21;60.82
6464;BME280;3265;42.694;23.282;2023-07-13T00:32:02;71366.31;;;-143.21;60.82
6464;BME280;3265;42.694;23.282;2023-07-13T00:34:29;71366.31;;;-143.21;59.83
6464;BME280;3265;42.694;23.282;2023-07-13T00:36:57;71368.28;;;-143.21;59.94
6464;BME280;3265;42.694;23.282;2023-07-13T00:39:24;71374.22;;;-143.21;60.03
6464;BME280;3265;42.694;23.282;2023-07-13T00:41:51;71386.13;;;-143.21;60.37
6464;BME280;3265;42.694;23.282;2023-07-13T00:44:19;71390.09;;;-143.21;60.85
6464;BME280;3265;42.694;23.282;2023-07-13T00:46:46;71392.06;;;-143.21;61.15
6464;BME280;3265;42.694;23.282;2023-07-13T00:49:15;71390.09;;;-143.21;60.78
6464;BME280;3265;42.694;23.282;2023-07-13T00:51:45;71390.09;;;-143.21;61.34
6464;BME280;3265;42.694;23.282;2023-07-13T00:54:32;71388.09;;;-143.21;61.12
6464;BME280;3265;42.694;23.282;2023-07-13T00:57:03;71388.09;;;-143.21;61.49
6464;BME280;3265;42.694;23.282;2023-07-13T00:59:31;71390.09;;;-143.21;61.11
6464;BME280;3265;42.694;23.282;2023-07-13T01:01:58;71388.09;;;-143.21;60.52
6464;BME280;3265;42.694;23.282;2023-07-13T01:04:26;71392.06;;;-143.21;60.26
6464;BME280;3265;42.694;23.282;2023-07-13T01:06:53;71398.03;;;-143.21;60.73
6464;BME280;3265;42.694;23.282;2023-07-13T01:09:21;71409.91;;;-143.21;61.49
6464;BME280;3265;42.694;23.282;2023-07-13T01:11:49;71417.84;;;-143.21;62.15
6464;BME280;3265;42.694;23.282;2023-07-13T01:14:16;71421.81;;;-143.21;62.42
6464;BME280;3265;42.694;23.282;2023-07-13T01:16:45;71421.81;;;-143.21;62.30
6464;BME280;3265;42.694;23.282;2023-07-13T01:19:21;71413.88;;;-143.21;62.09
6464;BME280;3265;42.694;23.282;2023-07-13T01:22:03;71419.84;;;-143.21;62.24
6464;BME280;3265;42.694;23.282;2023-07-13T01:24:34;71403.97;;;-143.21;61.99
6464;BME280;3265;42.694;23.282;2023-07-13T01:27:01;71405.94;;;-143.21;61.55
6464;BME280;3265;42.694;23.282;2023-07-13T01:29:29;71409.91;;;-143.21;61.96
6464;BME280;3265;42.694;23.282;2023-07-13T01:31:56;71421.81;;;-143.21;62.17
6464;BME280;3265;42.694;23.282;2023-07-13T01:34:23;71429.75;;;-143.21;62.89
6464;BME280;3265;42.694;23.282;2023-07-13T01:36:50;71429.75;;;-143.21;62.88
6464;BME280;3265;42.694;23.282;2023-07-13T01:39:20;71429.75;;;-143.21;63.20
6464;BME280;3265;42.694;23.282;2023-07-13T01:41:48;71421.81;;;-143.21;63.01
6464;BME280;3265;42.694;23.282;2023-07-13T01:44:15;71423.78;;;-143.21;63.03
6464;BME280;3265;42.694;23.282;2023-07-13T01:46:41;71423.78;;;-143.21;63.11
6464;BME280;3265;42.694;23.282;2023-07-13T01:49:08;71419.84;;;-143.21;63.59
6464;BME280;3265;42.694;23.282;2023-07-13T01:51:35;71439.66;;;-143.21;63.62
6464;BME280;3265;42.694;23.282;2023-07-13T01:54:02;71437.69;;;-143.21;63.21
6464;BME280;3265;42.694;23.282;2023-07-13T01:56:30;71435.69;;;-143.21;63.15
6464;BME280;3265;42.694;23.282;2023-07-13T01:58:57;71437.69;;;-143.21;63.65
6464;BME280;3265;42.694;23.282;2023-07-13T02:01:24;71439.66;;;-143.21;63.76
6464;BME280;3265;42.694;23.282;2023-07-13T02:03:51;71445.59;;;-143.21;63.96
6464;BME280;3265;42.694;23.282;2023-07-13T02:06:17;71443.63;;;-143.21;64.00
6464;BME280;3265;42.694;23.282;2023-07-13T02:08:44;71445.59;;;-143.21;64.13
6464;BME280;3265;42.694;23.282;2023-07-13T02:11:11;71445.59;;;-143.21;64.25
6464;BME280;3265;42.694;23.282;2023-07-13T02:13:39;71445.59;;;-143.21;64.54
6464;BME280;3265;42.694;23.282;2023-07-13T02:16:06;71453.53;;;-143.21;64.25
6464;BME280;3265;42.694;23.282;2023-07-13T02:18:33;71455.53;;;-143.21;64.38
6464;BME280;3265;42.694;23.282;2023-07-13T02:21:00;71463.44;;;-143.21;64.86
6464;BME280;3265;42.694;23.282;2023-07-13T02:23:28;71473.38;;;-143.21;65.04
6464;BME280;3265;42.694;23.282;2023-07-13T02:25:55;71477.34;;;-143.21;64.54
6464;BME280;3265;42.694;23.282;2023-07-13T02:28:22;71487.25;;;-143.21;65.30
6464;BME280;3265;42.694;23.282;2023-07-13T02:30:50;71491.22;;;-143.21;65.68
6464;BME280;3265;42.694;23.282;2023-07-13T02:33:17;71487.25;;;-143.21;66.06
6464;BME280;3265;42.694;23.282;2023-07-13T02:35:44;71493.19;;;-143.21;66.27
6464;BME280;3265;42.694;23.282;2023-07-13T02:38:11;71483.28;;;-143.21;66.14
6464;BME280;3265;42.694;23.282;2023-07-13T02:40:38;71489.22;;;-143.21;66.33
6464;BME280;3265;42.694;23.282;2023-07-13T02:43:04;71493.19;;;-143.21;66.30
6464;BME280;3265;42.694;23.282;2023-07-13T02:45:31;71491.22;;;-143.21;66.14
6464;BME280;3265;42.694;23.282;2023-07-13T02:47:59;71499.13;;;-143.21;66.50
6464;BME280;3265;42.694;23.282;2023-07-13T02:50:26;71507.06;;;-143.21;66.72
6464;BME280;3265;42.694;23.282;2023-07-13T02:52:53;71505.09;;;-143.21;65.98
6464;BME280;3265;42.694;23.282;2023-07-13T02:55:20;71513.03;;;-143.21;66.17
6464;BME280;3265;42.694;23.282;2023-07-13T02:57:46;71518.97;;;-143.21;66.48
6464;BME280;3265;42.694;23.282;2023-07-13T03:00:14;71526.91;;;-143.21;66.69
6464;BME280;3265;42.694;23.282;2023-07-13T03:02:41;71522.94;;;-143.21;66.98
6464;BME280;3265;42.694;23.282;2023-07-13T03:05:10;71534.81;;;-143.21;67.14
6464;BME280;3265;42.694;23.282;2023-07-13T03:07:38;71524.91;;;-143.21;66.96
6464;BME280;3265;42.694;23.282;2023-07-13T03:10:06;71534.81;;;-143.21;67.41
6464;BME280;3265;42.694;23.282;2023-07-13T03:12:33;71542.75;;;-143.21;67.93
6464;BME280;3265;42.694;23.282;2023-07-13T03:14:59;71536.81;;;-143.21;67.63
6464;BME280;3265;42.694;23.282;2023-07-13T03:17:26;71538.78;;;-143.21;67.59
6464;BME280;3265;42.694;23.282;2023-07-13T03:19:53;71534.81;;;-143.21;67.71
6464;BME280;3265;42.694;23.282;2023-07-13T03:22:21;71536.81;;;-143.21;67.88
6464;BME280;3265;42.694;23.282;2023-07-13T03:24:48;71540.78;;;-143.21;68.21
6464;BME280;3265;42.694;23.282;2023-07-13T03:27:17;71540.78;;;-143.21;68.58
6464;BME280;3265;42.694;23.282;2023-07-13T03:29:44;71536.81;;;-143.21;68.38
6464;BME280;3265;42.694;23.282;2023-07-13T03:32:11;71548.72;;;-143.21;68.61
6464;BME280;3265;42.694;23.282;2023-07-13T03:34:38;71546.72;;;-143.21;68.69
6464;BME280;3265;42.694;23.282;2023-07-13T03:37:05;71548.72;;;-143.21;69.02
6464;BME280;3265;42.694;23.282;2023-07-13T03:39:33;71542.75;;;-143.21;69.10
6464;BME280;3265;42.694;23.282;2023-07-13T03:42:00;71544.75;;;-143.21;69.22
6464;BME280;3265;42.694;23.282;2023-07-13T03:44:27;71536.81;;;-143.21;69.08
6464;BME280;3265;42.694;23.282;2023-07-13T03:46:54;71542.75;;;-143.21;69.05
6464;BME280;3265;42.694;23.282;2023-07-13T03:49:21;71538.78;;;-143.21;68.95
6464;BME280;3265;42.694;23.282;2023-07-13T03:51:47;71534.81;;;-143.21;68.79
6464;BME280;3265;42.694;23.282;2023-07-13T03:54:14;71530.88;;;-143.21;68.76
6464;BME280;3265;42.694;23.282;2023-07-13T03:56:42;71532.84;;;-143.21;68.74
6464;BME280;3265;42.694;23.282;2023-07-13T03:59:09;71518.97;;;-143.21;68.25
6464;BME280;3265;42.694;23.282;2023-07-13T04:01:36;71515.00;;;-143.21;68.34
6464;BME280;3265;42.694;23.282;2023-07-13T04:04:03;71513.03;;;-143.21;68.31
6464;BME280;3265;42.694;23.282;2023-07-13T04:06:30;71507.06;;;-143.21;68.40
6464;BME280;3265;42.694;23.282;2023-07-13T04:08:59;71507.06;;;-143.21;68.51
6464;BME280;3265;42.694;23.282;2023-07-13T04:11:28;71503.09;;;-143.21;68.76
6464;BME280;3265;42.694;23.282;2023-07-13T04:13:58;71497.16;;;-143.21;68.97
6464;BME280;3265;42.694;23.282;2023-07-13T04:16:25;71499.13;;;-143.21;68.82
6464;BME280;3265;42.694;23.282;2023-07-13T04:18:52;71505.09;;;-143.21;68.60
6464;BME280;3265;42.694;23.282;2023-07-13T04:21:24;71503.09;;;-143.21;68.60
6464;BME280;3265;42.694;23.282;2023-07-13T04:23:51;71518.97;;;-143.21;68.85
6464;BME280;3265;42.694;23.282;2023-07-13T04:26:18;71511.03;;;-143.21;69.39
6464;BME280;3265;42.694;23.282;2023-07-13T04:28:46;71505.09;;;-143.21;69.26
6464;BME280;3265;42.694;23.282;2023-07-13T04:31:15;71501.13;;;-143.21;69.16
6464;BME280;3265;42.694;23.282;2023-07-13T04:33:42;71497.16;;;-143.21;69.02
6464;BME280;3265;42.694;23.282;2023-07-13T04:36:09;71499.13;;;-143.21;68.85
6464;BME280;3265;42.694;23.282;2023-07-13T04:38:36;71497.16;;;-143.21;68.69
6464;BME280;3265;42.694;23.282;2023-07-13T04:41:05;71493.19;;;-143.21;68.70
6464;BME280;3265;42.694;23.282;2023-07-13T04:43:33;71499.13;;;-143.21;68.55
6464;BME280;3265;42.694;23.282;2023-07-13T04:46:04;71497.16;;;-143.21;68.47
6464;BME280;3265;42.694;23.282;2023-07-13T04:48:33;71495.19;;;-143.21;68.39
6464;BME280;3265;42.694;23.282;2023-07-13T04:51:01;71483.28;;;-143.21;67.84
6464;BME280;3265;42.694;23.282;2023-07-13T04:53:29;71491.22;;;-143.21;67.45
6464;BME280;3265;42.694;23.282;2023-07-13T04:55:56;71513.03;;;-143.21;67.92
6464;BME280;3265;42.694;23.282;2023-07-13T04:58:24;71518.97;;;-143.21;68.59
6464;BME280;3265;42.694;23.282;2023-07-13T05:00:51;71515.00;;;-143.21;68.83
6464;BME280;3265;42.694;23.282;2023-07-13T05:03:18;71511.03;;;-143.21;68.76
6464;BME280;3265;42.694;23.282;2023-07-13T05:05:54;71499.13;;;-143.21;68.17
6464;BME280;3265;42.694;23.282;2023-07-13T05:08:21;71491.22;;;-143.21;68.04
6464;BME280;3265;42.694;23.282;2023-07-13T05:10:48;71485.25;;;-143.21;67.97
6464;BME280;3265;42.694;23.282;2023-07-13T05:13:15;71479.31;;;-143.21;68.15
6464;BME280;3265;42.694;23.282;2023-07-13T05:15:42;71473.38;;;-143.21;67.74
6464;BME280;3265;42.694;23.282;2023-07-13T05:18:08;71479.31;;;-143.21;67.31
6464;BME280;3265;42.694;23.282;2023-07-13T05:20:35;71471.38;;;-143.21;66.83
6464;BME280;3265;42.694;23.282;2023-07-13T05:23:03;71463.44;;;-143.21;66.88
6464;BME280;3265;42.694;23.282;2023-07-13T05:25:30;71463.44;;;-143.21;67.06
6464;BME280;3265;42.694;23.282;2023-07-13T05:27:57;71461.47;;;-143.21;66.45
6464;BME280;3265;42.694;23.282;2023-07-13T05:30:24;71461.47;;;-143.21;65.93
6464;BME280;3265;42.694;23.282;2023-07-13T05:32:51;71469.41;;;-143.21;65.93
6464;BME280;3265;42.694;23.282;2023-07-13T05:35:17;71457.50;;;-143.21;66.01
6464;BME280;3265;42.694;23.282;2023-07-13T05:37:44;71453.53;;;-143.21;65.74
6464;BME280;3265;42.694;23.282;2023-07-13T05:40:13;71453.53;;;-143.21;65.30
6464;BME280;3265;42.694;23.282;2023-07-13T05:42:39;71447.59;;;-143.21;64.61
6464;BME280;3265;42.694;23.282;2023-07-13T05:45:07;71437.69;;;-143.21;64.83
6464;BME280;3265;42.694;23.282;2023-07-13T05:47:34;71431.72;;;-143.21;64.80
6464;BME280;3265;42.694;23.282;2023-07-13T05:50:01;71429.75;;;-143.21;64.74
6464;BME280;3265;42.694;23.282;2023-07-13T05:52:28;71415.88;;;-143.21;64.46
6464;BME280;3265;42.694;23.282;2023-07-13T05:54:55;71409.91;;;-143.21;64.64
6464;BME280;3265;42.694;23.282;2023-07-13T05:57:23;71402.00;;;-143.21;64.72
6464;BME280;3265;42.694;23.282;2023-07-13T05:59:50;71396.03;;;-143.21;64.56
6464;BME280;3265;42.694;23.282;2023-07-13T06:02:17;71384.16;;;-143.21;64.01
6464;BME280;3265;42.694;23.282;2023-07-13T06:04:43;71384.16;;;-143.21;64.32
6464;BME280;3265;42.694;23.282;2023-07-13T06:07:10;71370.28;;;-143.21;63.09
6464;BME280;3265;42.694;23.282;2023-07-13T06:09:37;71368.28;;;-143.21;62.12
6464;BME280;3265;42.694;23.282;2023-07-13T06:12:05;71366.31;;;-143.21;62.06
6464;BME280;3265;42.694;23.282;2023-07-13T06:14:33;71360.34;;;-143.21;61.65
6464;BME280;3265;42.694;23.282;2023-07-13T06:17:00;71352.44;;;-143.21;61.72
6464;BME280;3265;42.694;23.282;2023-07-13T06:19:27;71344.50;;;-143.21;61.39
6464;BME280;3265;42.694;23.282;2023-07-13T06:21:54;71344.50;;;-143.21;61.11
6464;BME280;3265;42.694;23.282;2023-07-13T06:24:21;71342.50;;;-143.21;61.05
6464;BME280;3265;42.694;23.282;2023-07-13T06:26:48;71340.53;;;-143.21;61.33
6464;BME280;3265;42.694;23.282;2023-07-13T06:29:15;71322.69;;;-143.21;60.45
6464;BME280;3265;42.694;23.282;2023-07-13T06:31:43;71308.81;;;-143.21;60.56
6464;BME280;3265;42.694;23.282;2023-07-13T06:34:10;71302.84;;;-143.21;60.67
6464;BME280;3265;42.694;23.282;2023-07-13T06:36:37;71296.91;;;-143.21;60.34
6464;BME280;3265;42.694;23.282;2023-07-13T06:39:04;71290.97;;;-143.21;60.15
6464;BME280;3265;42.694;23.282;2023-07-13T06:41:31;71279.06;;;-143.21;59.43
6464;BME280;3265;42.694;23.282;2023-07-13T06:43:58;71273.13;;;-143.21;59.93
6464;BME280;3265;42.694;23.282;2023-07-13T06:46:26;71261.22;;;-143.21;61.34
6464;BME280;3265;42.694;23.282;2023-07-13T06:48:56;71245.38;;;-143.21;60.36
6464;BME280;3265;42.694;23.282;2023-07-13T06:51:23;71231.50;;;-143.21;59.63
6464;BME280;3265;42.694;23.282;2023-07-13T06:53:51;71217.59;;;-143.21;58.29
6464;BME280;3265;42.694;23.282;2023-07-13T06:56:18;71205.72;;;-143.21;58.18
6464;BME280;3265;42.694;23.282;2023-07-13T06:58:45;71199.78;;;-143.21;58.13
6464;BME280;3265;42.694;23.282;2023-07-13T07:01:11;71195.81;;;-143.21;57.87
6464;BME280;3265;42.694;23.282;2023-07-13T07:03:38;71193.81;;;-143.21;57.68
6464;BME280;3265;42.694;23.282;2023-07-13T07:06:13;71177.97;;;-143.21;58.23
6464;BME280;3265;42.694;23.282;2023-07-13T07:08:40;71166.06;;;-143.21;58.03
6464;BME280;3265;42.694;23.282;2023-07-13T07:11:09;71140.28;;;-143.21;57.34
6464;BME280;3265;42.694;23.282;2023-07-13T07:13:36;71110.56;;;-143.21;56.39
6464;BME280;3265;42.694;23.282;2023-07-13T07:16:03;71090.72;;;-143.21;55.30
6464;BME280;3265;42.694;23.282;2023-07-13T07:18:30;71076.84;;;-143.21;54.07
6464;BME280;3265;42.694;23.282;2023-07-13T07:20:57;71057.03;;;-143.21;53.41
6464;BME280;3265;42.694;23.282;2023-07-13T07:23:25;71043.16;;;-143.21;52.88
6464;BME280;3265;42.694;23.282;2023-07-13T07:25:52;71037.22;;;-143.21;52.78
6464;BME280;3265;42.694;23.282;2023-07-13T07:28:19;71017.38;;;-143.21;52.92
6464;BME280;3265;42.694;23.282;2023-07-13T07:30:47;70999.53;;;-143.21;52.63
6464;BME280;3265;42.694;23.282;2023-07-13T07:33:14;70987.66;;;-143.21;52.21
6464;BME280;3265;42.694;23.282;2023-07-13T07:35:42;70975.75;;;-143.21;51.71
6464;BME280;3265;42.694;23.282;2023-07-13T07:38:09;70953.94;;;-143.21;51.33
6464;BME280;3265;42.694;23.282;2023-07-13T07:40:38;70949.97;;;-143.21;51.10
6464;BME280;3265;42.694;23.282;2023-07-13T07:43:05;70936.09;;;-143.21;51.06
6464;BME280;3265;42.694;23.282;2023-07-13T07:45:32;70918.25;;;-143.21;50.83
6464;BME280;3265;42.694;23.282;2023-07-13T07:47:59;70908.34;;;-143.21;50.64
6464;BME280;3265;42.694;23.282;2023-07-13T07:50:26;70892.50;;;-143.21;51.10
6464;BME280;3265;42.694;23.282;2023-07-13T07:52:53;70884.56;;;-143.21;50.67
6464;BME280;3265;42.694;23.282;2023-07-13T07:55:21;70870.69;;;-143.21;50.18
6464;BME280;3265;42.694;23.282;2023-07-13T07:57:50;70862.75;;;-143.21;49.58
6464;BME280;3265;42.694;23.282;2023-07-13T08:00:17;70852.84;;;-143.21;49.30
6464;BME280;3265;42.694;23.282;2023-07-13T08:02:45;70837.00;;;-143.21;49.52
6464;BME280;3265;42.694;23.282;2023-07-13T08:05:12;70825.09;;;-143.21;49.50
6464;BME280;3265;42.694;23.282;2023-07-13T08:07:39;70809.25;;;-143.21;49.55
6464;BME280;3265;42.694;23.282;2023-07-13T08:10:07;70801.31;;;-143.21;49.65
6464;BME280;3265;42.694;23.282;2023-07-13T08:12:34;70783.47;;;-143.21;49.19
6464;BME280;3265;42.694;23.282;2023-07-13T08:15:04;70773.56;;;-143.21;48.65
6464;BME280;3265;42.694;23.282;2023-07-13T08:17:31;70759.69;;;-143.21;47.29
6464;BME280;3265;42.694;23.282;2023-07-13T08:19:58;70749.78;;;-143.21;47.46
6464;BME280;3265;42.694;23.282;2023-07-13T08:22:25;70741.84;;;-143.21;47.45
6464;BME280;3265;42.694;23.282;2023-07-13T08:24:53;70725.97;;;-143.21;47.13
6464;BME280;3265;42.694;23.282;2023-07-13T08:27:22;70722.03;;;-143.21;46.69
6464;BME280;3265;42.694;23.282;2023-07-13T08:29:49;70714.09;;;-143.21;46.61
6464;BME280;3265;42.694;23.282;2023-07-13T08:32:19;70700.22;;;-143.21;46.87
6464;BME280;3265;42.694;23.282;2023-07-13T08:34:46;70680.38;;;-143.21;46.62
6464;BME280;3265;42.694;23.282;2023-07-13T08:37:13;70664.53;;;-143.21;45.85
6464;BME280;3265;42.694;23.282;2023-07-13T08:39:40;70652.66;;;-143.21;46.05
6464;BME280;3265;42.694;23.282;2023-07-13T08:42:12;70640.75;;;-143.21;45.72
6464;BME280;3265;42.694;23.282;2023-07-13T08:44:47;70644.72;;;-143.21;45.33
6464;BME280;3265;42.694;23.282;2023-07-13T08:47:22;70628.84;;;-143.21;45.57
6464;BME280;3265;42.694;23.282;2023-07-13T08:49:50;70628.84;;;-143.21;45.04
6464;BME280;3265;42.694;23.282;2023-07-13T08:52:28;70616.97;;;-143.21;44.76
6464;BME280;3265;42.694;23.282;2023-07-13T08:55:04;70607.06;;;-143.21;44.51
6464;BME280;3265;42.694;23.282;2023-07-13T08:57:34;70599.13;;;-143.21;44.58
6464;BME280;3265;42.694;23.282;2023-07-13T09:00:01;70585.25;;;-143.21;45.09
6464;BME280;3265;42.694;23.282;2023-07-13T09:02:39;70583.25;;;-143.21;44.98
6464;BME280;3265;42.694;23.282;2023-07-13T09:05:12;70581.28;;;-143.21;43.96
6464;BME280;3265;42.694;23.282;2023-07-13T09:07:55;70575.34;;;-143.21;43.90
6464;BME280;3265;42.694;23.282;2023-07-13T09:10:28;70561.47;;;-143.21;43.96
6464;BME280;3265;42.694;23.282;2023-07-13T09:13:05;70551.56;;;-143.21;43.67
6464;BME280;3265;42.694;23.282;2023-07-13T09:15:36;70541.63;;;-143.21;44.02
6464;BME280;3265;42.694;23.282;2023-07-13T09:18:09;70535.69;;;-143.21;43.88
6464;BME280;3265;42.694;23.282;2023-07-13T09:20:42;70523.81;;;-143.21;43.25
6464;BME280;3265;42.694;23.282;2023-07-13T09:23:16;70523.81;;;-143.21;43.48
6464;BME280;3265;42.694;23.282;2023-07-13T09:25:47;70515.88;;;-143.21;43.75
6464;BME280;3265;42.694;23.282;2023-07-13T09:28:19;70498.03;;;-143.21;43.35
6464;BME280;3265;42.694;23.282;2023-07-13T09:30:51;70486.16;;;-143.21;42.95
6464;BME280;3265;42.694;23.282;2023-07-13T09:33:22;70476.22;;;-143.21;43.41
6464;BME280;3265;42.694;23.282;2023-07-13T09:35:49;70456.41;;;-143.21;42.45
6464;BME280;3265;42.694;23.282;2023-07-13T09:38:17;70440.56;;;-143.21;42.61
6464;BME280;3265;42.694;23.282;2023-07-13T09:41:01;70426.69;;;-143.21;42.84
6464;BME280;3265;42.694;23.282;2023-07-13T09:43:31;70400.91;;;-143.21;38.37
6464;BME280;3265;42.694;23.282;2023-07-13T09:45:57;70402.91;;;-143.21;35.03
6464;BME280;3265;42.694;23.282;2023-07-13T09:48:34;70373.16;;;-143.21;36.34
6464;BME280;3265;42.694;23.282;2023-07-13T09:51:07;70363.25;;;-143.21;33.29
6464;BME280;3265;42.694;23.282;2023-07-13T09:53:42;70343.44;;;-143.21;33.32
6464;BME280;3265;42.694;23.282;2023-07-13T09:56:19;70333.53;;;-143.21;32.54
6464;BME280;3265;42.694;23.282;2023-07-13T09:58:46;70323.63;;;-143.21;32.43
6464;BME280;3265;42.694;23.282;2023-07-13T10:01:13;70313.72;;;-143.21;32.20
6464;BME280;3265;42.694;23.282;2023-07-13T10:03:52;70301.81;;;-143.21;32.43
6464;BME280;3265;42.694;23.282;2023-07-13T10:06:21;70289.91;;;-143.21;31.93
6464;BME280;3265;42.694;23.282;2023-07-13T10:08:49;70276.03;;;-143.21;31.84
6464;BME280;3265;42.694;23.282;2023-07-13T10:11:19;70260.19;;;-143.21;32.04
6464;BME280;3265;42.694;23.282;2023-07-13T10:13:51;70250.28;;;-143.21;32.07
6464;BME280;3265;42.694;23.282;2023-07-13T10:16:21;70256.22;;;-143.21;32.26
6464;BME280;3265;42.694;23.282;2023-07-13T10:18:52;70250.28;;;-143.21;31.24
6464;BME280;3265;42.694;23.282;2023-07-13T10:21:22;70246.31;;;-143.21;31.35
6464;BME280;3265;42.694;23.282;2023-07-13T10:23:53;70228.47;;;-143.21;32.33
6464;BME280;3265;42.694;23.282;2023-07-13T10:26:24;70198.75;;;-143.21;31.65
6464;BME280;3265;42.694;23.282;2023-07-13T10:28:55;70186.84;;;-143.21;32.09
6464;BME280;3265;42.694;23.282;2023-07-13T10:31:23;70169.03;;;-143.21;31.40
6464;BME280;3265;42.694;23.282;2023-07-13T10:33:52;70151.19;;;-143.21;30.80
6464;BME280;3265;42.694;23.282;2023-07-13T10:36:27;70155.16;;;-143.21;29.99
6464;BME280;3265;42.694;23.282;2023-07-13T10:38:57;70143.25;;;-143.21;30.26
6464;BME280;3265;42.694;23.282;2023-07-13T10:41:26;70145.25;;;-143.21;30.05
6464;BME280;3265;42.694;23.282;2023-07-13T10:43:55;70131.38;;;-143.21;30.32
6464;BME280;3265;42.694;23.282;2023-07-13T10:46:24;70103.63;;;-143.21;30.15
6464;BME280;3265;42.694;23.282;2023-07-13T10:48:57;70097.66;;;-143.21;29.02
6464;BME280;3265;42.694;23.282;2023-07-13T10:51:26;70081.81;;;-143.21;29.47
6464;BME280;3265;42.694;23.282;2023-07-13T10:54:19;70058.03;;;-143.21;29.62
6464;BME280;3265;42.694;23.282;2023-07-13T10:56:52;70050.09;;;-143.21;30.20
6464;BME280;3265;42.694;23.282;2023-07-13T10:59:24;70018.41;;;-143.21;29.88
6464;BME280;3265;42.694;23.282;2023-07-13T11:01:55;70000.56;;;-143.21;29.16
6464;BME280;3265;42.694;23.282;2023-07-13T11:04:25;69992.63;;;-143.21;29.15
6464;BME280;3265;42.694;23.282;2023-07-13T11:06:56;69984.72;;;-143.21;28.64
6464;BME280;3265;42.694;23.282;2023-07-13T11:09:36;69962.91;;;-143.21;28.44
6464;BME280;3265;42.694;23.282;2023-07-13T11:12:10;69937.16;;;-143.21;28.15
6464;BME280;3265;42.694;23.282;2023-07-13T11:15:10;69935.16;;;-143.21;28.08
6464;BME280;3265;42.694;23.282;2023-07-13T11:17:48;69935.16;;;-143.21;29.01
6464;BME280;3265;42.694;23.282;2023-07-13T11:20:40;69921.28;;;-143.21;29.79
6464;BME280;3265;42.694;23.282;2023-07-13T11:23:20;69877.69;;;-143.21;29.78
6464;BME280;3265;42.694;23.282;2023-07-13T11:25:53;69857.88;;;-143.21;29.82
6464;BME280;3265;42.694;23.282;2023-07-13T11:28:25;69842.03;;;-143.21;28.71
6464;BME280;3265;42.694;23.282;2023-07-13T11:31:13;69846.00;;;-143.21;29.15
6464;BME280;3265;42.694;23.282;2023-07-13T11:33:56;69840.03;;;-143.21;29.02
6464;BME280;3265;42.694;23.282;2023-07-13T11:36:30;69847.97;;;-143.21;28.91
6464;BME280;3265;42.694;23.282;2023-07-13T11:39:01;69861.84;;;-143.21;29.33
6464;BME280;3265;42.694;23.282;2023-07-13T11:41:32;69865.81;;;-143.21;29.54
6464;BME280;3265;42.694;23.282;2023-07-13T11:44:12;69849.94;;;-143.21;29.05
6464;BME280;3265;42.694;23.282;2023-07-13T11:46:44;69838.06;;;-143.21;29.42
6464;BME280;3265;42.694;23.282;2023-07-13T11:49:15;69830.13;;;-143.21;29.34
6464;BME280;3265;42.694;23.282;2023-07-13T11:51:44;69830.13;;;-143.21;29.02
6464;BME280;3265;42.694;23.282;2023-07-13T11:54:23;69846.00;;;-143.21;28.77
6464;BME280;3265;42.694;23.282;2023-07-13T11:56:52;69824.19;;;-143.21;29.16
6464;BME280;3265;42.694;23.282;2023-07-13T11:59:19;69814.28;;;-143.21;29.61
6464;BME280;3265;42.694;23.282;2023-07-13T12:01:50;69824.19;;;-143.21;30.17
6464;BME280;3265;42.694;23.282;2023-07-13T12:04:22;69830.13;;;-143.21;29.61
6464;BME280;3265;42.694;23.282;2023-07-13T12:07:04;69814.28;;;-143.21;28.66
6464;BME280;3265;42.694;23.282;2023-07-13T12:09:33;69800.41;;;-143.21;28.50
6464;BME280;3265;42.694;23.282;2023-07-13T12:12:02;69790.50;;;-143.21;28.81
6464;BME280;3265;42.694;23.282;2023-07-13T12:14:33;69784.56;;;-143.21;28.92
6464;BME280;3265;42.694;23.282;2023-07-13T12:17:00;69782.56;;;-143.21;28.25
6464;BME280;3265;42.694;23.282;2023-07-13T12:19:28;69790.50;;;-143.21;28.10
6464;BME280;3265;42.694;23.282;2023-07-13T12:21:58;69796.44;;;-143.21;28.40
6464;BME280;3265;42.694;23.282;2023-07-13T12:24:26;69790.50;;;-143.21;28.46
6464;BME280;3265;42.694;23.282;2023-07-13T12:26:58;69766.72;;;-143.21;28.08
6464;BME280;3265;42.694;23.282;2023-07-13T12:29:25;69742.94;;;-143.21;28.29
6464;BME280;3265;42.694;23.282;2023-07-13T12:31:52;69719.16;;;-143.21;28.49
6464;BME280;3265;42.694;23.282;2023-07-13T12:34:22;69711.22;;;-143.21;28.00
6464;BME280;3265;42.694;23.282;2023-07-13T12:36:51;69697.38;;;-143.21;27.87
6464;BME280;3265;42.694;23.282;2023-07-13T12:39:22;69713.22;;;-143.21;27.93
6464;BME280;3265;42.694;23.282;2023-07-13T12:41:51;69697.38;;;-143.21;28.10
6464;BME280;3265;42.694;23.282;2023-07-13T12:44:22;69671.59;;;-143.21;27.64
6464;BME280;3265;42.694;23.282;2023-07-13T12:46:54;69651.78;;;-143.21;27.76
6464;BME280;3265;42.694;23.282;2023-07-13T12:49:31;69661.69;;;-143.21;27.27
6464;BME280;3265;42.694;23.282;2023-07-13T12:52:02;69687.44;;;-143.21;27.53
6464;BME280;3265;42.694;23.282;2023-07-13T12:54:31;69667.63;;;-143.21;27.61
6464;BME280;3265;42.694;23.282;2023-07-13T12:56:59;69655.75;;;-143.21;26.60
6464;BME280;3265;42.694;23.282;2023-07-13T12:59:30;69653.75;;;-143.21;27.60
6464;BME280;3265;42.694;23.282;2023-07-13T13:02:02;69651.78;;;-143.21;27.60